Terminal Aerodrome Forecast
Issued by NWS

Home | Current Version | Previous Version | Text Only | Print | Product List | Glossary On
Versions: 1 2 3 4 5 6 7 8 9 10 11 12 13 14 15 16 17 18 19 20 21 22 23 24 25 26 27 28 29 30 31 32 33 34
000
FTAK31 PANC 231138
TAFAIL
TAF
PAIL 231138Z 2312/2412 14005KT P6SM FEW015 BKN140
     FM231600 05008KT P6SM BKN120
     FM232100 12018KT P6SM VCSH BKN060
     FM240100 09018G28KT P6SM -RA OVC040
     FM240600 09020G25KT P6SM OVC040=

USA.gov is the U.S. government's official web portal to all federal, state and local government web resources and services.